Terminal Aerodrome Forecast
Issued by NWS

Home | Current Version | Previous Version | Text Only | Print | Product List | Glossary Off
Versions: 1 2 3 4 5 6 7 8 9 10 11 12 13 14 15 16 17 18

000
FTUS43 KGRB 291100
TAFMTW
TAF
KMTW 291139Z 2912/3012 28005KT 6SM BR SCT050 BKN250
     FM291530 01014G21KT P6SM BKN012 OVC060
     FM291800 01010G17KT P6SM BKN012 OVC025
      TEMPO 2919/2923 5SM -SHRA BR
     FM300100 02017G26KT P6SM SCT007 OVC012 PROB30 3006/3012 -SHRA=

USA.gov is the U.S. government's official web portal to all federal, state and local government web resources and services.